Time;durP1;ratioP1;P1;durP2;ratioP2;P2;SDS_P1;SDS_P2;PMS_P1;PMS_P2;Temp;Humidity;BMP_temperature;BMP_pressure;BME280_temperature;BME280_humidity;BME280_pressure;Samples;Min_cycle;Max_cycle;Signal;HPM_P1;HPM_P2
2021/05/16 00:00:12;;;;;;;6.50;4.63;;;;;;;12.39;72.15;97464.56;127434;1105;115981;-83
2021/05/16 00:02:39;;;;;;;6.65;4.55;;;;;;;12.39;71.14;97466.48;127482;1104;115851;-83
2021/05/16 00:05:06;;;;;;;6.50;4.53;;;;;;;12.36;71.76;97464.45;128461;1104;22782;-83
2021/05/16 00:07:32;;;;;;;6.85;4.43;;;;;;;12.33;71.62;97475.94;127560;1104;115705;-83
2021/05/16 00:09:59;;;;;;;8.70;4.65;;;;;;;12.27;72.43;97465.39;127638;1104;115733;-83
2021/05/16 00:12:25;;;;;;;8.25;5.18;;;;;;;12.24;71.69;97467.98;127581;1104;115764;-83
2021/05/16 00:14:52;;;;;;;11.13;5.63;;;;;;;12.23;71.89;97464.50;127595;1104;115703;-83
2021/05/16 00:17:18;;;;;;;8.13;5.83;;;;;;;12.24;72.63;97460.67;128352;1105;22957;-83
2021/05/16 00:19:45;;;;;;;8.13;5.50;;;;;;;12.27;72.65;97459.20;127555;1106;115411;-81
2021/05/16 00:22:11;;;;;;;8.10;5.43;;;;;;;12.28;72.84;97450.75;127522;1104;115462;-82
2021/05/16 00:24:37;;;;;;;9.10;6.40;;;;;;;12.31;72.71;97449.30;127562;1105;117484;-81
2021/05/16 00:27:03;;;;;;;7.80;5.98;;;;;;;12.32;72.68;97448.16;127495;1104;116281;-82
2021/05/16 00:29:29;;;;;;;7.20;5.75;;;;;;;12.33;72.27;97455.13;128430;1104;22765;-82
2021/05/16 00:31:55;;;;;;;8.73;5.83;;;;;;;12.35;72.70;97457.50;128374;1104;22763;-81
2021/05/16 00:34:21;;;;;;;8.13;5.33;;;;;;;12.37;72.90;97447.91;127634;1104;114855;-82
2021/05/16 00:36:47;;;;;;;8.40;6.13;;;;;;;12.37;72.60;97456.00;127474;1104;115489;-82
2021/05/16 00:39:13;;;;;;;7.63;5.30;;;;;;;12.41;72.78;97454.19;127582;1104;115362;-82
2021/05/16 00:41:39;;;;;;;6.60;4.93;;;;;;;12.46;73.22;97451.27;127434;1105;115119;-82
2021/05/16 00:44:05;;;;;;;7.43;4.95;;;;;;;12.50;73.13;97448.66;128420;1104;22721;-82
2021/05/16 00:46:31;;;;;;;6.23;4.85;;;;;;;12.53;73.49;97445.25;127497;1105;115287;-82
2021/05/16 00:48:58;;;;;;;6.33;4.75;;;;;;;12.55;73.35;97443.01;127513;1104;115242;-82
2021/05/16 00:51:24;;;;;;;5.68;4.45;;;;;;;12.57;72.79;97448.05;127587;1100;115615;-81
2021/05/16 00:53:50;;;;;;;7.50;4.45;;;;;;;12.57;73.15;97440.73;127519;1104;115993;-82
2021/05/16 00:56:16;;;;;;;5.75;4.45;;;;;;;12.56;73.43;97441.88;128344;1098;22718;-82
2021/05/16 00:58:42;;;;;;;5.47;3.90;;;;;;;12.54;73.03;97444.14;127576;1104;115800;-81
2021/05/16 01:01:10;;;;;;;4.83;3.83;;;;;;;12.50;73.17;97441.34;127625;1098;115357;-82
2021/05/16 01:03:37;;;;;;;5.93;4.50;;;;;;;12.48;73.20;97442.81;127480;1104;115321;-82
2021/05/16 01:06:05;;;;;;;5.65;3.70;;;;;;;12.47;73.14;97435.84;127449;1105;115287;-82
2021/05/16 01:08:31;;;;;;;4.63;3.55;;;;;;;12.48;73.25;97446.29;127617;1104;115683;-82
2021/05/16 01:10:58;;;;;;;4.45;3.43;;;;;;;12.49;72.74;97442.45;128422;1104;22908;-83
2021/05/16 01:13:26;;;;;;;4.93;4.10;;;;;;;12.50;73.52;97433.25;127517;1105;115862;-82
2021/05/16 01:15:53;;;;;;;4.25;3.78;;;;;;;12.50;73.26;97429.77;127562;1100;116071;-84
2021/05/16 01:18:19;;;;;;;4.68;3.48;;;;;;;12.46;73.03;97437.77;127618;1104;115259;-82
2021/05/16 01:20:49;;;;;;;5.80;3.73;;;;;;;12.45;72.73;97432.69;127517;1099;115263;-82
2021/05/16 01:23:24;;;;;;;3.35;3.05;;;;;;;12.43;73.52;97427.65;128350;1104;22799;-82
2021/05/16 01:25:50;;;;;;;4.38;3.30;;;;;;;12.40;73.56;97425.63;127523;1099;115469;-83
2021/05/16 01:28:18;;;;;;;6.68;3.93;;;;;;;12.35;73.72;97422.41;127510;1099;115134;-83
2021/05/16 01:30:46;;;;;;;5.50;4.15;;;;;;;12.32;73.29;97421.16;127674;1104;115282;-82
2021/05/16 01:33:13;;;;;;;5.33;4.38;;;;;;;12.33;73.54;97428.13;127565;1100;115776;-82
2021/05/16 01:35:39;;;;;;;5.60;4.20;;;;;;;12.37;74.22;97423.61;127572;1104;115789;-82
2021/05/16 01:38:07;;;;;;;4.55;3.95;;;;;;;12.42;74.45;97411.80;128281;1105;22769;-82
2021/05/16 01:40:35;;;;;;;4.10;3.70;;;;;;;12.47;74.97;97415.03;127560;1104;115238;-82
2021/05/16 01:43:01;;;;;;;4.15;3.60;;;;;;;12.48;74.25;97411.19;127507;1105;116072;-83
2021/05/16 01:45:30;;;;;;;4.43;3.70;;;;;;;12.52;74.63;97409.38;127494;1105;116400;-83
2021/05/16 01:47:57;;;;;;;4.28;3.88;;;;;;;12.52;74.94;97405.89;127496;1105;115627;-82
2021/05/16 01:50:33;;;;;;;4.55;3.83;;;;;;;12.54;76.10;97398.24;128308;1105;22760;-82
2021/05/16 01:53:01;;;;;;;5.00;4.20;;;;;;;12.56;75.70;97412.17;128406;1104;22811;-83
2021/05/16 01:55:27;;;;;;;6.20;4.70;;;;;;;12.60;75.82;97407.64;127457;1105;116474;-82
2021/05/16 01:57:54;;;;;;;4.55;3.90;;;;;;;12.63;75.32;97403.48;127647;1104;115479;-83
2021/05/16 02:00:26;;;;;;;2.70;2.50;;;;;;;12.66;77.70;97403.58;127493;1105;115338;-83
2021/05/16 02:02:53;;;;;;;5.27;4.70;;;;;;;12.65;75.85;97399.28;127598;1104;116191;-84
2021/05/16 02:05:20;;;;;;;5.43;4.45;;;;;;;12.68;76.26;97398.59;128253;1104;22735;-84
2021/05/16 02:07:48;;;;;;;5.35;4.35;;;;;;;12.65;78.02;97401.98;127440;1105;115524;-83
2021/05/16 02:10:15;;;;;;;5.60;5.00;;;;;;;12.63;78.19;97406.96;127632;1104;116064;-83
2021/05/16 02:12:42;;;;;;;5.65;4.75;;;;;;;12.65;77.26;97390.40;127498;1106;115675;-83
2021/05/16 02:15:11;;;;;;;4.87;4.07;;;;;;;12.67;77.11;97399.73;127440;1106;115331;-83
2021/05/16 02:17:40;;;;;;;4.83;4.15;;;;;;;12.73;76.55;97384.05;127470;1107;115567;-84
2021/05/16 02:20:19;;;;;;;5.00;4.50;;;;;;;12.82;76.19;97395.48;128243;1107;22785;-83
2021/05/16 02:22:46;;;;;;;5.00;4.13;;;;;;;12.86;77.29;97392.88;127543;1104;114908;-82
2021/05/16 02:25:14;;;;;;;4.68;4.20;;;;;;;12.83;77.05;97394.34;127452;1106;115689;-82
2021/05/16 02:27:40;;;;;;;4.33;3.83;;;;;;;12.84;77.54;97390.51;127496;1107;115580;-82
2021/05/16 02:30:09;;;;;;;4.53;4.13;;;;;;;12.86;76.26;97390.18;127490;1105;115797;-83
2021/05/16 02:32:37;;;;;;;4.53;4.10;;;;;;;12.88;76.56;97396.78;127508;1100;115261;-82
2021/05/16 02:35:10;;;;;;;4.08;3.60;;;;;;;12.94;76.71;97394.63;128378;1104;22739;-82
2021/05/16 02:37:38;;;;;;;3.35;3.05;;;;;;;13.00;76.53;97383.19;127602;1104;115767;-82
2021/05/16 02:40:05;;;;;;;3.80;3.45;;;;;;;13.05;76.21;97379.46;127624;1104;115505;-82
2021/05/16 02:42:31;;;;;;;4.25;3.75;;;;;;;13.07;75.67;97390.69;127499;1104;115363;-82
2021/05/16 02:44:57;;;;;;;4.40;3.55;;;;;;;13.11;75.29;97388.86;127506;1105;116519;-82
2021/05/16 02:47:23;;;;;;;3.90;3.58;;;;;;;13.12;75.28;97385.02;128286;1105;22821;-83
2021/05/16 02:49:49;;;;;;;3.13;2.83;;;;;;;13.07;76.17;97381.80;127639;1100;115004;-83
2021/05/16 02:52:16;;;;;;;3.55;3.25;;;;;;;13.02;75.85;97382.86;127440;1105;115994;-83
2021/05/16 02:54:43;;;;;;;4.10;3.60;;;;;;;12.99;76.01;97376.22;127473;1104;115321;-83
2021/05/16 02:57:10;;;;;;;3.85;3.45;;;;;;;13.01;75.31;97384.78;127623;1104;116335;-82
2021/05/16 02:59:36;;;;;;;2.97;2.77;;;;;;;13.04;76.05;97377.88;127632;1104;115955;-82
2021/05/16 03:02:02;;;;;;;3.38;2.78;;;;;;;13.08;75.40;97377.95;128419;1104;22729;-82
2021/05/16 03:04:28;;;;;;;3.18;2.93;;;;;;;13.10;75.71;97383.81;127606;1100;115180;-83
2021/05/16 03:06:55;;;;;;;3.45;2.80;;;;;;;13.12;75.24;97382.31;127476;1104;116402;-83
2021/05/16 03:09:21;;;;;;;3.20;2.90;;;;;;;13.11;75.17;97378.05;127555;1099;114938;-83
2021/05/16 03:11:47;;;;;;;2.90;2.70;;;;;;;13.04;74.89;97372.47;127466;1104;115092;-83
2021/05/16 03:14:13;;;;;;;3.23;2.93;;;;;;;13.02;75.28;97383.64;128343;1104;23482;-83
2021/05/16 03:16:39;;;;;;;3.73;3.00;;;;;;;13.01;75.27;97389.41;127569;1104;115670;-83
2021/05/16 03:19:05;;;;;;;2.90;2.70;;;;;;;12.99;75.38;97389.73;127590;1105;115132;-83
2021/05/16 03:21:31;;;;;;;2.95;2.70;;;;;;;12.99;75.51;97384.33;127494;1099;115428;-83
2021/05/16 03:23:57;;;;;;;2.50;2.30;;;;;;;13.03;75.15;97384.42;127598;1104;115753;-82
2021/05/16 03:26:24;;;;;;;2.93;2.63;;;;;;;13.05;75.14;97378.66;128305;1105;23004;-84
2021/05/16 03:28:50;;;;;;;3.15;2.68;;;;;;;13.07;74.91;97377.17;127524;1099;115289;-83
2021/05/16 03:31:17;;;;;;;2.83;2.63;;;;;;;13.10;75.03;97387.30;127503;1105;115170;-83
2021/05/16 03:33:43;;;;;;;3.10;2.78;;;;;;;13.10;74.70;97381.11;127518;1105;115331;-83
2021/05/16 03:36:09;;;;;;;2.78;2.58;;;;;;;13.10;75.00;97381.11;127488;1105;115670;-83
2021/05/16 03:38:35;;;;;;;3.15;2.85;;;;;;;13.06;75.03;97372.91;127544;1104;116977;-83
2021/05/16 03:41:00;;;;;;;4.03;2.78;;;;;;;13.06;75.09;97383.72;128351;1105;23278;-82
2021/05/16 03:43:27;;;;;;;3.20;2.90;;;;;;;13.03;75.28;97376.31;127590;1104;115888;-83
2021/05/16 03:45:53;;;;;;;3.03;2.80;;;;;;;13.06;75.54;97372.13;127530;1105;115523;-83
2021/05/16 03:48:20;;;;;;;3.30;2.78;;;;;;;13.08;75.78;97372.55;127489;1100;115785;-83
2021/05/16 03:50:46;;;;;;;2.80;2.60;;;;;;;13.10;75.16;97381.11;127629;1104;115631;-83
2021/05/16 03:53:12;;;;;;;2.78;2.58;;;;;;;13.11;75.65;97378.05;128319;1107;22910;-83
2021/05/16 03:55:38;;;;;;;3.20;2.75;;;;;;;13.12;75.32;97379.61;127591;1100;115686;-83
2021/05/16 03:58:04;;;;;;;3.05;2.63;;;;;;;13.15;75.55;97383.54;127533;1107;116075;-82
2021/05/16 04:00:30;;;;;;;3.25;2.95;;;;;;;13.15;75.26;97376.21;127516;1107;115096;-83
2021/05/16 04:02:56;;;;;;;2.88;2.68;;;;;;;13.17;74.95;97386.69;127608;1105;115881;-83
2021/05/16 04:05:22;;;;;;;3.10;2.80;;;;;;;13.15;75.03;97388.95;128291;1105;22834;-83
2021/05/16 04:07:49;;;;;;;3.15;2.85;;;;;;;13.16;75.24;97385.09;127560;1104;115426;-83
2021/05/16 04:10:15;;;;;;;2.70;2.50;;;;;;;13.18;75.51;97390.95;127557;1104;115587;-83
2021/05/16 04:12:42;;;;;;;3.65;2.70;;;;;;;13.21;75.24;97382.16;127505;1105;115412;-83
2021/05/16 04:15:09;;;;;;;3.98;2.95;;;;;;;13.25;75.38;97391.16;127499;1107;115831;-83
2021/05/16 04:17:36;;;;;;;3.60;2.93;;;;;;;13.28;75.25;97393.14;127473;1107;116188;-82
2021/05/16 04:20:02;;;;;;;4.48;2.80;;;;;;;13.32;75.56;97398.63;128353;1107;22758;-83
2021/05/16 04:22:28;;;;;;;4.40;2.90;;;;;;;13.33;74.94;97400.22;127632;1104;115245;-83
2021/05/16 04:24:54;;;;;;;4.55;3.40;;;;;;;13.32;74.87;97412.15;127520;1106;115723;-83
2021/05/16 04:27:20;;;;;;;4.90;3.88;;;;;;;13.31;75.03;97418.70;127511;1105;116118;-83
2021/05/16 04:29:46;;;;;;;5.13;3.67;;;;;;;13.27;75.24;97418.61;127617;1099;115759;-83
2021/05/16 04:32:12;;;;;;;3.60;3.20;;;;;;;13.26;75.08;97428.64;128345;1105;22736;-84
2021/05/16 04:34:38;;;;;;;3.23;2.90;;;;;;;13.28;74.93;97428.28;127646;1104;115773;-83
2021/05/16 04:37:05;;;;;;;3.98;2.83;;;;;;;13.28;75.19;97430.20;127538;1105;116016;-83
2021/05/16 04:39:31;;;;;;;3.95;2.90;;;;;;;13.31;75.12;97432.22;127539;1105;116073;-83
2021/05/16 04:41:57;;;;;;;3.10;2.58;;;;;;;13.34;75.38;97432.30;127574;1104;116458;-84
2021/05/16 04:44:23;;;;;;;4.08;2.98;;;;;;;13.32;75.67;97433.78;128394;1104;22754;-83
2021/05/16 04:46:50;;;;;;;3.05;2.50;;;;;;;13.29;75.34;97426.39;127555;1104;114635;-83
2021/05/16 04:49:16;;;;;;;3.48;2.88;;;;;;;13.24;75.04;97430.92;127599;1104;115185;-83
2021/05/16 04:51:42;;;;;;;4.23;2.68;;;;;;;13.23;76.08;97442.85;127465;1107;115390;-83
2021/05/16 04:54:08;;;;;;;3.45;2.80;;;;;;;13.23;75.77;97439.37;127552;1107;115650;-83
2021/05/16 04:56:34;;;;;;;3.25;2.85;;;;;;;13.24;76.54;97438.23;127540;1100;115362;-83
2021/05/16 04:59:02;;;;;;;2.85;2.65;;;;;;;13.19;76.45;97435.77;128333;1107;22965;-83
2021/05/16 05:01:29;;;;;;;2.73;2.53;;;;;;;13.20;76.04;97445.44;127333;1104;115310;-83
2021/05/16 05:03:56;;;;;;;2.80;2.53;;;;;;;13.25;76.28;97439.81;127562;1105;115705;-83
2021/05/16 05:06:23;;;;;;;3.43;3.08;;;;;;;13.31;75.61;97433.00;127618;1104;115293;-84
2021/05/16 05:08:49;;;;;;;3.27;2.97;;;;;;;13.34;75.58;97445.05;127544;1107;115469;-83
2021/05/16 05:11:15;;;;;;;3.20;2.83;;;;;;;13.36;75.29;97435.45;128332;1099;23501;-83
2021/05/16 05:13:41;;;;;;;3.33;3.03;;;;;;;13.39;75.35;97439.36;127561;1105;115350;-83
2021/05/16 05:16:08;;;;;;;3.53;3.00;;;;;;;13.36;75.71;97446.27;127554;1105;115221;-83
2021/05/16 05:18:34;;;;;;;3.13;2.83;;;;;;;13.37;76.14;97431.61;127589;1105;116061;-84
2021/05/16 05:21:00;;;;;;;2.80;2.60;;;;;;;13.42;75.74;97436.74;127556;1104;116264;-84
2021/05/16 05:23:27;;;;;;;3.23;2.80;;;;;;;13.47;75.34;97447.28;128349;1104;23488;-84
2021/05/16 05:25:57;;;;;;;2.98;2.78;;;;;;;13.52;75.88;97443.55;127365;1104;114931;-84
2021/05/16 05:28:23;;;;;;;3.18;2.88;;;;;;;13.56;75.03;97441.72;127366;1104;115934;-84
2021/05/16 05:30:50;;;;;;;3.30;3.00;;;;;;;13.60;75.20;97439.88;127250;1099;115137;-84
2021/05/16 05:33:18;;;;;;;3.33;3.03;;;;;;;13.64;75.67;97442.66;127498;1104;115806;-83
2021/05/16 05:35:45;;;;;;;3.30;2.83;;;;;;;13.67;75.58;97431.90;127466;1104;116182;-84
2021/05/16 05:38:11;;;;;;;3.73;3.20;;;;;;;13.70;75.67;97444.73;128065;1105;22741;-83
2021/05/16 05:40:37;;;;;;;3.28;2.98;;;;;;;13.77;75.78;97448.74;127477;1105;115670;-83
2021/05/16 05:43:03;;;;;;;2.93;2.73;;;;;;;13.83;75.11;97450.02;127553;1105;115431;-83
2021/05/16 05:45:29;;;;;;;3.45;3.15;;;;;;;13.88;75.49;97457.89;127693;1104;115299;-83
2021/05/16 05:47:55;;;;;;;3.68;3.25;;;;;;;13.91;75.79;97466.08;127625;1104;115325;-83
2021/05/16 05:50:21;;;;;;;3.75;2.95;;;;;;;13.93;75.63;97469.20;128452;1104;22732;-82
2021/05/16 05:52:47;;;;;;;3.87;3.30;;;;;;;13.95;75.37;97466.95;127584;1104;114917;-83
2021/05/16 05:55:14;;;;;;;4.25;3.35;;;;;;;13.90;76.10;97464.49;127753;1104;116008;-82
2021/05/16 05:57:39;;;;;;;4.10;3.70;;;;;;;13.88;75.39;97460.59;127602;1105;115775;-82
2021/05/16 06:00:07;;;;;;;3.80;3.50;;;;;;;13.86;75.33;97462.84;127638;1104;119193;-82
2021/05/16 06:02:34;;;;;;;4.88;4.33;;;;;;;13.82;75.55;97473.59;127614;1106;116023;-82
2021/05/16 06:05:00;;;;;;;4.30;3.90;;;;;;;13.84;75.62;97473.26;128425;1099;22853;-83
2021/05/16 06:07:26;;;;;;;4.40;3.50;;;;;;;13.84;76.08;97467.84;127333;1104;115441;-82
2021/05/16 06:09:52;;;;;;;4.23;3.83;;;;;;;13.90;75.66;97471.83;127356;1100;115345;-83
2021/05/16 06:12:18;;;;;;;4.00;3.70;;;;;;;13.95;75.62;97471.55;127239;1105;115547;-83
2021/05/16 06:14:47;;;;;;;3.83;3.53;;;;;;;14.01;75.31;97478.27;127389;1104;115312;-83
2021/05/16 06:17:14;;;;;;;4.08;3.73;;;;;;;14.02;75.99;97477.13;128079;1105;22729;-81
2021/05/16 06:19:40;;;;;;;4.15;3.85;;;;;;;14.04;75.53;97480.27;127263;1105;114986;-81
2021/05/16 06:22:07;;;;;;;3.85;3.55;;;;;;;14.03;75.53;97478.72;127399;1104;115288;-81
2021/05/16 06:24:33;;;;;;;3.55;3.25;;;;;;;13.99;75.32;97477.85;127433;1104;115549;-82
2021/05/16 06:26:59;;;;;;;3.80;3.23;;;;;;;13.94;75.10;97495.13;127381;1104;115883;-81
2021/05/16 06:29:25;;;;;;;3.13;2.85;;;;;;;13.93;75.26;97493.56;128163;1100;26237;-81
2021/05/16 06:31:51;;;;;;;3.63;3.30;;;;;;;13.90;74.87;97488.06;127412;1104;115173;-82
2021/05/16 06:34:17;;;;;;;3.20;2.90;;;;;;;13.87;74.79;97489.58;127203;1104;116479;-82
2021/05/16 06:36:43;;;;;;;3.50;3.20;;;;;;;13.86;74.76;97477.16;127400;1104;115525;-83
2021/05/16 06:39:09;;;;;;;3.70;3.40;;;;;;;13.85;75.20;97475.59;127583;1104;115480;-82
2021/05/16 06:41:35;;;;;;;3.38;3.08;;;;;;;13.82;75.02;97478.22;127654;1104;115269;-82
2021/05/16 06:44:03;;;;;;;3.33;3.13;;;;;;;13.73;75.73;97481.13;128444;1104;22757;-82
2021/05/16 06:46:29;;;;;;;3.40;3.10;;;;;;;13.74;75.21;97488.88;127666;1104;115524;-83
2021/05/16 06:48:56;;;;;;;3.50;3.15;;;;;;;13.79;75.68;97468.09;127645;1104;116322;-83
2021/05/16 06:51:22;;;;;;;3.18;2.88;;;;;;;13.85;75.60;97472.89;127571;1104;115533;-83
2021/05/16 06:53:48;;;;;;;2.83;2.63;;;;;;;13.84;74.79;97470.55;127635;1104;115285;-83
2021/05/16 06:56:15;;;;;;;3.43;2.50;;;;;;;13.81;75.25;97466.62;128437;1104;22732;-82
2021/05/16 06:58:42;;;;;;;4.03;3.38;;;;;;;13.82;75.12;97472.81;127583;1105;115082;-83
2021/05/16 07:01:09;;;;;;;2.75;2.55;;;;;;;13.79;75.36;97468.09;127663;1104;115941;-82
2021/05/16 07:03:37;;;;;;;2.23;2.13;;;;;;;13.77;75.06;97468.46;127581;1105;115120;-83
2021/05/16 07:06:05;;;;;;;2.80;2.60;;;;;;;13.74;74.81;97479.98;127694;1104;115555;-83
2021/05/16 07:08:33;;;;;;;2.63;2.33;;;;;;;13.73;75.15;97473.00;127604;1104;117019;-82
2021/05/16 07:11:01;;;;;;;2.40;2.20;;;;;;;13.74;75.03;97479.98;128349;1104;22782;-81
2021/05/16 07:13:28;;;;;;;1.85;1.60;;;;;;;13.68;73.71;97473.28;127592;1105;115175;-84
2021/05/16 07:15:54;;;;;;;2.38;2.18;;;;;;;13.69;74.28;97478.33;127540;1104;115467;-82
2021/05/16 07:18:20;;;;;;;2.50;2.30;;;;;;;13.75;74.23;97482.35;127708;1104;116573;-83
2021/05/16 07:20:46;;;;;;;2.35;2.13;;;;;;;13.80;73.86;97475.09;127392;1105;116533;-83
2021/05/16 07:23:13;;;;;;;1.75;1.65;;;;;;;13.78;73.39;97470.02;128386;1105;22752;-82
2021/05/16 07:25:39;;;;;;;2.50;2.30;;;;;;;13.83;73.71;97480.56;127762;1104;114818;-82
2021/05/16 07:28:05;;;;;;;2.35;2.15;;;;;;;13.92;73.67;97466.86;127683;1104;116428;-82
2021/05/16 07:30:31;;;;;;;2.10;1.90;;;;;;;13.99;73.48;97464.32;127513;1104;115392;-82
2021/05/16 07:32:57;;;;;;;2.25;2.05;;;;;;;13.97;73.37;97464.66;127473;1099;115928;-82
2021/05/16 07:35:24;;;;;;;2.50;2.30;;;;;;;14.02;73.67;97473.64;128327;1104;24714;-82
2021/05/16 07:37:51;;;;;;;2.35;2.00;;;;;;;14.07;73.05;97473.35;127649;1104;115505;-83
2021/05/16 07:40:18;;;;;;;2.10;2.00;;;;;;;14.12;73.68;97465.75;127649;1104;115485;-82
2021/05/16 07:42:44;;;;;;;2.35;2.20;;;;;;;14.14;72.89;97463.46;127488;1104;116061;-81
2021/05/16 07:45:12;;;;;;;2.63;2.00;;;;;;;14.15;73.12;97470.47;127530;1105;115489;-81
2021/05/16 07:47:38;;;;;;;2.60;2.33;;;;;;;14.16;73.07;97469.32;127576;1104;116081;-81
2021/05/16 07:50:09;;;;;;;2.10;2.00;;;;;;;14.21;73.58;97468.25;128405;1099;25852;-81
2021/05/16 07:52:35;;;;;;;2.10;1.90;;;;;;;14.28;73.44;97473.82;127548;1104;115557;-82
2021/05/16 07:55:01;;;;;;;2.00;1.90;;;;;;;14.37;73.50;97462.77;127540;1105;115436;-82
2021/05/16 07:57:27;;;;;;;1.90;1.80;;;;;;;14.43;72.97;97472.98;127553;1099;116874;-81
2021/05/16 07:59:53;;;;;;;1.63;1.60;;;;;;;14.47;72.85;97473.05;127649;1104;115192;-81
2021/05/16 08:02:20;;;;;;;2.15;1.83;;;;;;;14.49;72.85;97474.27;128466;1104;22732;-81
2021/05/16 08:04:46;;;;;;;1.70;1.60;;;;;;;14.48;71.89;97474.61;127641;1099;115534;-81
2021/05/16 08:07:12;;;;;;;1.68;1.58;;;;;;;14.43;72.27;97481.10;127729;1104;115567;-82
2021/05/16 08:09:39;;;;;;;4.68;1.70;;;;;;;14.43;72.56;97486.52;127644;1104;114883;-83
2021/05/16 08:12:05;;;;;;;1.85;1.70;;;;;;;14.46;72.25;97474.98;127526;1104;115451;-82
2021/05/16 08:14:31;;;;;;;1.58;1.40;;;;;;;14.49;72.75;97479.69;127726;1104;115380;-82
2021/05/16 08:16:57;;;;;;;1.65;1.45;;;;;;;14.56;72.13;97472.86;128339;1104;22733;-82
2021/05/16 08:19:24;;;;;;;1.50;1.40;;;;;;;14.59;71.86;97477.56;127498;1105;115248;-82
2021/05/16 08:21:50;;;;;;;1.60;1.50;;;;;;;14.56;71.45;97472.86;127517;1104;116052;-82
2021/05/16 08:24:17;;;;;;;3.33;2.35;;;;;;;14.54;71.79;97477.84;127495;1105;115079;-83
2021/05/16 08:26:43;;;;;;;1.70;1.60;;;;;;;14.53;71.76;97485.18;127452;1104;115433;-82
2021/05/16 08:29:09;;;;;;;1.85;1.70;;;;;;;14.55;71.80;97479.42;128342;1105;22902;-83
2021/05/16 08:31:35;;;;;;;1.70;1.60;;;;;;;14.56;72.25;97481.77;127595;1104;115030;-83
2021/05/16 08:34:07;;;;;;;1.90;1.80;;;;;;;14.61;72.54;97477.98;127654;1104;115556;-83
2021/05/16 08:36:34;;;;;;;;;;;;;;;14.66;72.63;97480.42;127710;1104;115415;-83
2021/05/16 08:39:00;;;;;;;1.50;1.40;;;;;;;14.65;72.59;97493.16;127589;1105;102966;-83
2021/05/16 08:41:27;;;;;;;2.98;1.60;;;;;;;14.64;72.51;97490.81;128306;1106;22807;-82
2021/05/16 08:43:54;;;;;;;1.90;1.70;;;;;;;14.64;71.93;97480.77;127752;1104;115282;-82
2021/05/16 08:46:21;;;;;;;1.90;1.80;;;;;;;14.65;71.96;97485.03;127572;1105;116901;-82
2021/05/16 08:48:47;;;;;;;1.80;1.70;;;;;;;14.65;72.07;97486.95;127699;1099;115442;-83
2021/05/16 08:51:17;;;;;;;2.57;1.60;;;;;;;14.68;71.83;97469.99;127649;1104;116820;-83
2021/05/16 08:54:01;;;;;;;1.93;1.80;;;;;;;14.70;71.79;97473.14;127576;1104;115640;-83
2021/05/16 08:56:27;;;;;;;1.70;1.60;;;;;;;14.72;72.07;97476.27;128405;1104;22785;-83
2021/05/16 08:58:53;;;;;;;1.70;1.60;;;;;;;14.78;72.75;97482.98;127617;1104;115306;-84
2021/05/16 09:01:24;;;;;;;1.70;1.60;;;;;;;14.75;73.09;97478.27;127556;1100;115737;-81
2021/05/16 09:03:51;;;;;;;1.70;1.60;;;;;;;14.68;72.54;97492.45;127650;1104;115464;-83
2021/05/16 09:06:18;;;;;;;3.35;1.65;;;;;;;14.59;72.64;97488.41;127625;1104;115724;-82
2021/05/16 09:08:45;;;;;;;1.70;1.60;;;;;;;14.46;72.42;97488.52;127466;1100;116068;-82
2021/05/16 09:11:11;;;;;;;1.40;1.40;;;;;;;14.33;72.63;97499.83;128340;1104;22776;-83
2021/05/16 09:13:45;;;;;;;2.05;1.60;;;;;;;14.19;72.69;97492.20;127604;1104;115167;-82
2021/05/16 09:16:17;;;;;;;1.70;1.60;;;;;;;14.09;73.36;97496.23;127535;1105;116011;-83
2021/05/16 09:18:51;;;;;;;1.95;1.75;;;;;;;14.03;73.71;97500.37;127581;1105;115482;-83
2021/05/16 09:21:22;;;;;;;1.90;1.70;;;;;;;14.05;74.20;97513.53;127474;1105;116156;-82
2021/05/16 09:24:01;;;;;;;2.58;2.03;;;;;;;14.12;73.96;97513.70;127637;1104;115459;-83
2021/05/16 09:26:35;;;;;;;2.05;1.95;;;;;;;14.21;73.33;97525.11;128440;1104;22779;-83
2021/05/16 09:29:17;;;;;;;2.45;1.80;;;;;;;14.34;72.74;97520.34;128537;1104;22760;-82
2021/05/16 09:31:43;;;;;;;2.33;1.65;;;;;;;14.54;72.72;97510.34;127608;1104;115090;-83
2021/05/16 09:34:11;;;;;;;1.80;1.70;;;;;;;14.62;72.14;97507.44;127521;1107;115614;-83
2021/05/16 09:36:40;;;;;;;2.15;1.60;;;;;;;14.78;72.01;97509.30;127258;1107;115699;-83
2021/05/16 09:39:14;;;;;;;1.80;1.70;;;;;;;14.99;72.08;97509.69;127234;1107;116316;-83
2021/05/16 09:42:03;;;;;;;1.75;1.63;;;;;;;15.29;72.33;97509.84;127638;1104;115600;-83
2021/05/16 09:44:47;;;;;;;2.30;1.70;;;;;;;15.60;71.80;97521.58;128209;1104;23287;-83
2021/05/16 09:47:27;;;;;;;1.55;1.45;;;;;;;15.88;71.02;97524.02;128180;1104;22737;-82
2021/05/16 09:49:58;;;;;;;1.13;1.13;;;;;;;16.01;69.54;97528.08;127633;1104;115678;-82
2021/05/16 09:52:35;;;;;;;1.33;1.18;;;;;;;16.10;68.74;97530.53;127140;1107;115781;-82
2021/05/16 09:55:13;;;;;;;1.23;0.70;;;;;;;16.16;67.72;97529.86;127237;1107;115845;-82
2021/05/16 09:57:42;;;;;;;1.10;1.00;;;;;;;16.24;66.73;97524.53;127525;1107;116265;-82
2021/05/16 10:00:09;;;;;;;0.88;0.88;;;;;;;16.38;66.17;97530.14;127185;1107;115304;-82
2021/05/16 10:02:36;;;;;;;0.65;0.65;;;;;;;16.49;65.60;97514.77;127401;1104;115475;-83
2021/05/16 10:05:04;;;;;;;1.53;1.00;;;;;;;16.65;65.35;97518.06;128194;1105;23526;-83
2021/05/16 10:07:30;;;;;;;0.90;0.70;;;;;;;16.96;63.90;97507.97;127087;1104;116511;-83
2021/05/16 10:09:58;;;;;;;0.40;0.40;;;;;;;17.24;63.68;97512.91;127330;1104;115238;-82
2021/05/16 10:12:24;;;;;;;0.68;0.68;;;;;;;17.53;62.48;97513.97;127494;1100;115601;-80
2021/05/16 10:15:05;;;;;;;1.48;0.80;;;;;;;17.82;61.08;97509.55;127249;1104;115634;-82
2021/05/16 10:17:35;;;;;;;0.65;0.65;;;;;;;18.13;60.15;97508.20;127472;1100;115613;-83
2021/05/16 10:20:08;;;;;;;0.78;0.78;;;;;;;18.26;58.98;97505.94;128349;1107;23362;-80
2021/05/16 10:22:34;;;;;;;0.95;0.95;;;;;;;18.44;58.70;97516.95;127601;1105;115545;-83
2021/05/16 10:25:00;;;;;;;0.75;0.75;;;;;;;18.61;58.62;97518.19;127594;1104;115816;-83
2021/05/16 10:27:33;;;;;;;0.60;0.60;;;;;;;18.75;57.09;97514.78;127582;1098;115265;-83
2021/05/16 10:30:07;;;;;;;0.65;0.65;;;;;;;18.90;56.55;97510.91;127722;1104;115486;-82
2021/05/16 10:32:41;;;;;;;1.65;0.80;;;;;;;19.13;56.09;97522.27;127483;1104;115972;-82
2021/05/16 10:35:09;;;;;;;0.78;0.78;;;;;;;19.42;55.04;97527.80;128319;1104;22736;-82
2021/05/16 10:37:47;;;;;;;1.63;1.00;;;;;;;19.51;54.13;97520.00;127598;1104;114945;-82
2021/05/16 10:40:42;;;;;;;1.50;0.93;;;;;;;19.48;53.41;97539.89;127610;1100;115441;-82
2021/05/16 10:43:27;;;;;;;0.65;0.65;;;;;;;19.41;53.07;97544.56;127712;1099;116382;-81
2021/05/16 10:45:54;;;;;;;2.18;0.90;;;;;;;19.42;53.41;97536.00;127622;1104;115042;-81
2021/05/16 10:48:20;;;;;;;1.08;0.85;;;;;;;19.48;53.15;97539.89;127588;1104;114862;-81
2021/05/16 10:50:56;;;;;;;0.80;0.80;;;;;;;19.46;53.54;97546.92;127606;1104;115566;-82
2021/05/16 10:53:30;;;;;;;0.80;0.80;;;;;;;19.43;53.11;97542.23;128475;1104;22788;-82
2021/05/16 10:56:07;;;;;;;0.85;0.75;;;;;;;19.35;53.38;97546.90;128580;1104;22737;-82
2021/05/16 10:58:33;;;;;;;0.90;0.90;;;;;;;19.27;52.93;97548.83;127627;1104;115311;-82
2021/05/16 11:01:05;;;;;;;0.85;0.85;;;;;;;19.13;52.65;97555.02;127597;1104;115758;-83
2021/05/16 11:04:02;;;;;;;0.75;0.75;;;;;;;18.92;52.21;97546.78;127460;1104;115957;-82
2021/05/16 11:06:30;;;;;;;1.00;1.00;;;;;;;18.81;51.86;97548.69;127610;1098;115518;-81
2021/05/16 11:08:57;;;;;;;0.75;0.75;;;;;;;18.73;52.33;97545.14;127576;1104;115695;-82
2021/05/16 11:11:31;;;;;;;1.10;0.70;;;;;;;18.60;52.73;97550.13;128215;1104;22753;-81
2021/05/16 11:13:59;;;;;;;0.80;0.80;;;;;;;18.42;52.34;97537.56;128194;1105;22732;-81
2021/05/16 11:16:25;;;;;;;1.03;1.00;;;;;;;18.24;53.27;97549.16;127140;1104;115661;-81
2021/05/16 11:18:52;;;;;;;3.08;1.15;;;;;;;18.21;53.54;97543.68;127364;1104;115561;-81
2021/05/16 11:21:18;;;;;;;1.05;1.05;;;;;;;18.17;52.97;97540.92;127337;1104;115603;-80